Terminal Aerodrome Forecast
Issued by NWS

Home | Current Version | Previous Version | Text Only | Print | Product List | Glossary On
Versions: 1 2 3 4 5 6 7 8 9 10 11 12 13 14 15 16 17 18 19 20
986
FTUS45 KTFX 191120
TAFLWT
TAF
KLWT 191120Z 1912/2012 VRB06KT 4SM -SN OVC040
      TEMPO 1912/1916 2SM -SN BR BKN010
     FM192100 VRB05KT 6SM BR VCSH BKN025
     FM200500 20007KT P6SM SCT080 BKN090=

USA.gov is the U.S. government's official web portal to all federal, state and local government web resources and services.